Kerhonkson, NY (12446)

3:26 PM EDT on August 27, 2015 (GMT -0400)
Mombaccus - Catskill Native Nursery | | Change Station
CLOSE
Current Station
Personal Weather Station
Location: Kerhonkson, NY
Elevation: 898 ft
Nearby Weather Stations

Elev 898 ft 41.83 °N, 74.30 °W | Updated 1 minute ago

Mostly Cloudy
Mostly Cloudy
74.7 °F
Feels Like 77 °F
N
3.0
Wind Variable Wind from SW
Gusts 5.0 mph

Today
High -- | Low -- °F
--% Chance of Precip.
Yesterday
High -- | Low -- °F
Precip. -- in
6:17 AM 7:39 PM
Waxing Gibbous, 94% visible
Pressure 30.06 in
Visibility 10.0 miles
Clouds Mostly Cloudy 4600 ft
Heat Index 77 °F
Dew Point 58 °F
Humidity 57%
Rainfall 0.00 in
Snow Depth Not available.
UV 4 out of 12
Pollen 9.40 out of 12
Air Quality Not available.
Flu Activity Not available.
METAR KMGJ 271854Z AUTO 31010G17KT 10SM BKN046 25/13 A3006 RMK AO2 SLP178 T02500133 TSNO
Pressure 30.06 in
Visibility 10.0 miles
Clouds Mostly Cloudy 4600 ft
Heat Index 77 °F
Dew Point 58 °F
Humidity 57%
Rainfall 0.00 in
Snow Depth Not available.
UV 4 out of 12
Pollen 9.40 out of 12
Air Quality Not available.
Flu Activity Not available.
METAR KMGJ 271854Z AUTO 31010G17KT 10SM BKN046 25/13 A3006 RMK AO2 SLP178 T02500133 TSNO

10-Day Weather Forecast

×

Almanac

Astronomy

Aug. 27, 2015 Rise Set
Actual Time
Civil Twilight
Nautical Twilight
Astronomical Twilight
Moon
Length of Visible Light
Length of Day
Tomorrow will be .
, % of the Moon is Illuminated

Today's Extremes

State Highs State Lows

Community

WunderPhotos

Upload Photos

1,850,195 photos uploaded!

WunderBlogs® & News

Nearby

Air Quality

  Air Quality AQ Index Pollutant
Not available.

Snow Depth

Station Depth Elevation

Earthquake Activity

City Distance Mag. Time & Date
Minimum magnitude displayed is 2.5.

Coastal Water Temperatures

Place Temperature

Stations

Nearby Weather Stations

Station Location Temp. Windchill Dew Point Humidity Wind Precip. Elev Updated Type